Newark, Delaware
Current Conditions -  °F | °C
As of 3:51 PM on Tuesday 21 Oct 2014 (Local Time) from KILG Reporting Station
Few Clouds Few Clouds  
Wind Chill: 67°   Ceiling: Unl
Heat Index: 67°   Visibility: 10mi
Dew Point: 49°   Wind: 6mph
Humidity: 52%   Direction: 180°S
Pressure: 29.81"   Gusts: NA
Location:  39.68°N, 75.76°W
Report Text: KILG 211951Z 18005KT 10SM FEW055 19/09 A2981 RMK AO2 SLP095 T01940094
Loading
Personal Weather Stations






























Interactive Weather Map
Tropical Storm Tracking
New forecast layout! Learn more

10-Day Weather Forecast

Advertisements
Track Severe Weather on mobile